createdAt,value
2023-03-26T00:01:46.756Z,100.00
2023-03-26T00:04:14.567Z,100.00
2023-03-26T00:06:42.386Z,100.00
2023-03-26T00:09:13.184Z,100.00
2023-03-26T00:11:42.668Z,100.00
2023-03-26T00:14:13.854Z,100.00
2023-03-26T00:16:43.013Z,100.00
2023-03-26T00:19:11.301Z,100.00
2023-03-26T00:21:39.070Z,100.00
2023-03-26T00:24:09.478Z,100.00
2023-03-26T00:26:38.922Z,100.00
2023-03-26T00:29:09.804Z,100.00
2023-03-26T00:31:39.818Z,100.00
2023-03-26T00:34:08.462Z,100.00
2023-03-26T00:36:37.234Z,100.00
2023-03-26T00:39:06.156Z,100.00
2023-03-26T00:41:37.039Z,100.00
2023-03-26T00:44:05.092Z,100.00
2023-03-26T00:46:34.237Z,100.00
2023-03-26T00:49:03.783Z,100.00
2023-03-26T00:51:31.947Z,100.00
2023-03-26T00:53:59.714Z,100.00
2023-03-26T00:56:27.456Z,100.00
2023-03-26T00:58:55.571Z,100.00
2023-03-26T01:01:27.710Z,100.00
2023-03-26T01:04:07.441Z,100.00
2023-03-26T01:06:38.733Z,100.00
2023-03-26T01:09:14.103Z,100.00
2023-03-26T01:11:41.953Z,100.00
2023-03-26T01:14:13.188Z,100.00
2023-03-26T01:16:45.045Z,100.00
2023-03-26T01:19:17.950Z,100.00
2023-03-26T01:21:47.338Z,100.00
2023-03-26T01:24:16.445Z,100.00
2023-03-26T01:27:07.852Z,100.00
2023-03-26T01:29:42.373Z,100.00
2023-03-26T01:32:20.702Z,100.00
2023-03-26T01:34:57.327Z,100.00
2023-03-26T01:37:30.494Z,100.00
2023-03-26T01:40:07.126Z,100.00
2023-03-26T01:42:37.999Z,100.00
2023-03-26T01:45:10.495Z,100.00
2023-03-26T01:47:39.319Z,100.00
2023-03-26T01:50:08.655Z,100.00
2023-03-26T01:52:36.546Z,100.00
2023-03-26T01:55:06.639Z,100.00
2023-03-26T01:57:38.008Z,100.00
2023-03-26T02:00:14.216Z,100.00
2023-03-26T02:02:49.949Z,100.00
2023-03-26T02:05:22.149Z,100.00
2023-03-26T02:07:53.834Z,100.00
2023-03-26T02:10:28.578Z,100.00
2023-03-26T02:12:56.499Z,100.00
2023-03-26T02:15:24.572Z,100.00
2023-03-26T02:17:53.340Z,100.00
2023-03-26T02:20:22.072Z,100.00
2023-03-26T02:22:49.791Z,100.00
2023-03-26T02:25:19.394Z,100.00
2023-03-26T02:27:50.303Z,100.00
2023-03-26T02:30:20.126Z,100.00
2023-03-26T02:32:47.911Z,100.00
2023-03-26T02:35:15.774Z,100.00
2023-03-26T02:37:46.843Z,100.00
2023-03-26T02:40:14.790Z,100.00
2023-03-26T02:42:42.485Z,100.00
2023-03-26T02:45:11.620Z,100.00
2023-03-26T02:47:39.375Z,100.00
2023-03-26T02:50:09.021Z,100.00
2023-03-26T02:52:37.461Z,100.00
2023-03-26T02:55:05.360Z,100.00
2023-03-26T02:57:33.086Z,100.00
2023-03-26T03:00:02.356Z,100.00
2023-03-26T03:02:31.468Z,100.00
2023-03-26T03:05:01.563Z,100.00
2023-03-26T03:07:30.033Z,100.00
2023-03-26T03:10:03.298Z,100.00
2023-03-26T03:12:31.015Z,100.00
2023-03-26T03:14:58.716Z,100.00
2023-03-26T03:17:26.672Z,100.00
2023-03-26T03:19:55.763Z,100.00
2023-03-26T03:22:23.445Z,100.00
2023-03-26T03:24:52.036Z,100.00
2023-03-26T03:27:20.361Z,100.00
2023-03-26T03:29:48.104Z,100.00
2023-03-26T03:32:15.788Z,100.00
2023-03-26T03:34:43.434Z,100.00
2023-03-26T03:37:12.728Z,100.00
2023-03-26T03:39:40.562Z,100.00
2023-03-26T03:42:08.290Z,100.00
2023-03-26T03:44:36.161Z,100.00
2023-03-26T03:47:03.922Z,100.00
2023-03-26T03:49:31.642Z,100.00
2023-03-26T03:51:59.386Z,100.00
2023-03-26T03:54:29.340Z,100.00
2023-03-26T03:56:57.432Z,100.00
2023-03-26T03:59:25.239Z,100.00
2023-03-26T04:01:52.906Z,100.00
2023-03-26T04:04:21.985Z,100.00
2023-03-26T04:06:49.796Z,100.00
2023-03-26T04:09:17.542Z,100.00
2023-03-26T04:11:46.549Z,100.00
2023-03-26T04:14:14.221Z,100.00
2023-03-26T04:16:41.951Z,100.00
2023-03-26T04:19:09.658Z,100.00
2023-03-26T04:21:37.879Z,100.00
2023-03-26T04:24:07.192Z,100.00
2023-03-26T04:26:35.494Z,100.00
2023-03-26T04:29:06.512Z,100.00
2023-03-26T04:31:36.182Z,100.00
2023-03-26T04:34:07.777Z,100.00
2023-03-26T04:36:35.537Z,100.00
2023-03-26T04:39:05.238Z,100.00
2023-03-26T04:41:33.290Z,100.00
2023-03-26T04:44:02.020Z,100.00
2023-03-26T04:46:33.653Z,100.00
2023-03-26T04:49:02.232Z,100.00
2023-03-26T04:51:38.380Z,100.00
2023-03-26T04:54:08.161Z,100.00
2023-03-26T04:56:43.272Z,100.00
2023-03-26T04:59:14.901Z,100.00
2023-03-26T05:01:45.814Z,100.00
2023-03-26T05:04:14.090Z,100.00
2023-03-26T05:06:42.924Z,100.00
2023-03-26T05:09:11.172Z,100.00
2023-03-26T05:11:38.919Z,100.00
2023-03-26T05:14:06.747Z,100.00
2023-03-26T05:16:34.730Z,100.00
2023-03-26T05:19:03.871Z,100.00
2023-03-26T05:21:31.531Z,100.00
2023-03-26T05:23:59.410Z,100.00
2023-03-26T05:26:27.223Z,100.00
2023-03-26T05:28:54.943Z,100.00
2023-03-26T05:31:22.819Z,100.00
2023-03-26T05:33:51.592Z,100.00
2023-03-26T05:36:20.856Z,100.00
2023-03-26T05:38:49.797Z,100.00
2023-03-26T05:41:18.106Z,100.00
2023-03-26T05:43:47.199Z,100.00
2023-03-26T05:46:15.529Z,100.00
2023-03-26T05:48:43.268Z,100.00
2023-03-26T05:51:12.282Z,100.00
2023-03-26T05:53:41.345Z,100.00
2023-03-26T05:56:09.743Z,100.00
2023-03-26T05:58:37.975Z,100.00
2023-03-26T06:01:08.439Z,100.00
2023-03-26T06:03:38.208Z,100.00
2023-03-26T06:06:08.402Z,100.00
2023-03-26T06:08:36.082Z,100.00
2023-03-26T06:11:08.064Z,100.00
2023-03-26T06:13:36.079Z,100.00
2023-03-26T06:16:03.851Z,100.00
2023-03-26T06:18:31.571Z,100.00
2023-03-26T06:21:00.197Z,100.00
2023-03-26T06:23:27.910Z,100.00
2023-03-26T06:25:56.180Z,100.00
2023-03-26T06:28:25.374Z,100.00
2023-03-26T06:30:53.744Z,100.00
2023-03-26T06:33:23.470Z,100.00
2023-03-26T06:35:52.306Z,100.00
2023-03-26T06:38:20.076Z,100.00
2023-03-26T06:40:47.752Z,100.00
2023-03-26T06:43:15.404Z,100.00
2023-03-26T06:45:44.435Z,100.00
2023-03-26T06:48:12.109Z,100.00
2023-03-26T06:50:39.813Z,100.00
2023-03-26T06:53:07.520Z,100.00
2023-03-26T06:55:35.211Z,100.00
2023-03-26T06:58:02.876Z,100.00
2023-03-26T07:00:30.596Z,100.00
2023-03-26T07:02:59.813Z,100.00
2023-03-26T07:05:27.490Z,100.00
2023-03-26T07:07:55.352Z,100.00
2023-03-26T07:10:23.044Z,100.00
2023-03-26T07:12:50.721Z,100.00
2023-03-26T07:15:18.454Z,100.00
2023-03-26T07:17:46.215Z,100.00
2023-03-26T07:20:15.413Z,100.00
2023-03-26T07:22:43.622Z,100.00
2023-03-26T07:25:13.032Z,100.00
2023-03-26T07:27:48.296Z,100.00
2023-03-26T07:30:18.401Z,100.00
2023-03-26T07:32:51.167Z,100.00
2023-03-26T07:35:23.573Z,100.00
2023-03-26T07:38:01.780Z,100.00
2023-03-26T07:40:41.332Z,100.00
2023-03-26T07:43:15.775Z,100.00
2023-03-26T07:45:44.865Z,100.00
2023-03-26T07:48:18.099Z,100.00
2023-03-26T07:50:48.465Z,100.00
2023-03-26T07:53:16.578Z,100.00
2023-03-26T07:55:52.116Z,100.00
2023-03-26T07:58:34.952Z,100.00
2023-03-26T08:01:06.194Z,100.00
2023-03-26T08:03:47.322Z,100.00
2023-03-26T08:06:20.456Z,100.00
2023-03-26T08:08:55.113Z,100.00
2023-03-26T08:11:32.896Z,100.00
2023-03-26T08:14:15.340Z,100.00
2023-03-26T08:16:47.862Z,100.00
2023-03-26T08:19:29.809Z,100.00
2023-03-26T08:22:02.134Z,100.00
2023-03-26T08:24:37.009Z,100.00
2023-03-26T08:27:13.430Z,100.00
2023-03-26T08:29:45.275Z,100.00
2023-03-26T08:32:16.009Z,100.00
2023-03-26T08:34:43.742Z,100.00
2023-03-26T08:37:12.835Z,100.00
2023-03-26T08:39:42.456Z,100.00
2023-03-26T08:42:45.982Z,100.00
2023-03-26T08:45:41.491Z,100.00
2023-03-26T08:48:44.796Z,100.00
2023-03-26T08:51:40.603Z,100.00
2023-03-26T08:54:40.775Z,100.00
2023-03-26T08:57:34.478Z,100.00
2023-03-26T09:00:17.097Z,100.00
2023-03-26T09:03:01.473Z,100.00
2023-03-26T09:06:01.219Z,100.00
2023-03-26T09:09:00.796Z,100.00
2023-03-26T09:12:28.287Z,97.28
2023-03-26T09:15:31.921Z,99.41
2023-03-26T09:18:43.960Z,100.00
2023-03-26T09:21:28.609Z,97.69
2023-03-26T09:24:25.479Z,96.28
2023-03-26T09:27:01.659Z,99.30
2023-03-26T09:29:56.186Z,96.54
2023-03-26T09:32:58.188Z,96.37
2023-03-26T09:35:53.741Z,100.00
2023-03-26T09:38:38.443Z,98.47
2023-03-26T09:41:12.074Z,98.83
2023-03-26T09:44:30.376Z,94.01
2023-03-26T09:47:12.605Z,97.72
2023-03-26T09:49:47.930Z,100.00
2023-03-26T09:52:37.856Z,97.81
2023-03-26T09:55:22.762Z,90.29
2023-03-26T09:58:30.345Z,91.11
2023-03-26T10:01:01.022Z,93.67
2023-03-26T10:03:36.035Z,88.87
2023-03-26T10:06:25.823Z,88.69
2023-03-26T10:09:10.434Z,87.39
2023-03-26T10:12:04.527Z,90.82
2023-03-26T10:14:36.538Z,90.70
2023-03-26T10:17:12.742Z,89.27
2023-03-26T10:19:49.677Z,90.71
2023-03-26T10:22:32.736Z,89.97
2023-03-26T10:25:14.132Z,91.46
2023-03-26T10:27:49.280Z,92.75
2023-03-26T10:30:30.472Z,92.74
2023-03-26T10:33:03.167Z,95.22
2023-03-26T10:35:41.659Z,100.00
2023-03-26T10:38:19.967Z,99.03
2023-03-26T10:40:59.087Z,96.31
2023-03-26T10:43:54.634Z,98.26
2023-03-26T10:46:48.466Z,87.19
2023-03-26T10:49:36.179Z,90.17
2023-03-26T10:52:05.117Z,92.32
2023-03-26T10:54:43.738Z,92.33
2023-03-26T10:57:21.319Z,83.14
2023-03-26T10:59:49.021Z,85.30
2023-03-26T11:02:30.523Z,86.96
2023-03-26T11:05:10.131Z,87.94
2023-03-26T11:07:41.573Z,85.22
2023-03-26T11:10:14.909Z,87.45
2023-03-26T11:12:46.122Z,86.94
2023-03-26T11:15:21.773Z,86.70
2023-03-26T11:17:58.355Z,89.66
2023-03-26T11:20:33.848Z,81.63
2023-03-26T11:23:22.852Z,84.42
2023-03-26T11:26:12.071Z,77.11
2023-03-26T11:29:31.135Z,82.63
2023-03-26T11:32:04.901Z,75.54
2023-03-26T11:34:37.045Z,79.81
2023-03-26T11:37:08.049Z,80.87
2023-03-26T11:39:42.838Z,79.58
2023-03-26T11:42:14.333Z,75.64
2023-03-26T11:44:45.515Z,76.00
2023-03-26T11:47:17.507Z,73.40
2023-03-26T11:49:45.800Z,72.18
2023-03-26T11:52:15.655Z,77.38
2023-03-26T11:54:43.458Z,79.22
2023-03-26T11:57:17.275Z,76.65
2023-03-26T11:59:56.576Z,80.62
2023-03-26T12:02:32.288Z,75.58
2023-03-26T12:05:19.332Z,74.55
2023-03-26T12:07:51.207Z,75.48
2023-03-26T12:10:25.062Z,71.63
2023-03-26T12:12:56.340Z,72.98
2023-03-26T12:15:24.149Z,71.29
2023-03-26T12:17:56.097Z,73.99
2023-03-26T12:20:35.898Z,74.85
2023-03-26T12:23:04.994Z,77.25
2023-03-26T12:25:34.040Z,77.90
2023-03-26T12:28:05.019Z,76.53
2023-03-26T12:30:34.800Z,77.99
2023-03-26T12:33:05.536Z,76.69
2023-03-26T12:35:34.814Z,76.61
2023-03-26T12:38:24.183Z,76.68
2023-03-26T12:41:06.663Z,72.08
2023-03-26T12:44:48.826Z,74.85
2023-03-26T12:47:58.451Z,70.66
2023-03-26T12:49:19.127Z,68.56
2023-03-26T12:51:49.973Z,65.23
2023-03-26T12:54:25.935Z,65.23
2023-03-26T12:57:12.417Z,67.27
2023-03-26T12:59:52.782Z,68.29
2023-03-26T13:02:44.892Z,66.85
2023-03-26T13:05:28.397Z,66.27
2023-03-26T13:08:05.280Z,68.02
2023-03-26T13:10:43.089Z,69.85
2023-03-26T13:13:37.500Z,69.60
2023-03-26T13:16:11.212Z,69.86
2023-03-26T13:18:45.430Z,70.28
2023-03-26T13:21:19.271Z,68.01
2023-03-26T13:23:51.443Z,67.90
2023-03-26T13:26:29.890Z,68.82
2023-03-26T13:29:02.612Z,67.28
2023-03-26T13:31:35.011Z,68.67
2023-03-26T13:34:11.243Z,68.62
2023-03-26T13:36:46.701Z,69.76
2023-03-26T13:39:28.803Z,66.61
2023-03-26T13:42:22.562Z,66.48
2023-03-26T13:45:05.125Z,67.11
2023-03-26T13:47:37.780Z,68.49
2023-03-26T13:50:09.866Z,68.00
2023-03-26T13:52:42.716Z,67.07
2023-03-26T13:55:21.219Z,63.88
2023-03-26T13:57:53.474Z,66.07
2023-03-26T14:00:26.275Z,65.17
2023-03-26T14:02:58.152Z,65.86
2023-03-26T14:05:29.099Z,65.35
2023-03-26T14:08:01.716Z,64.11
2023-03-26T14:10:34.090Z,63.10
2023-03-26T14:13:04.279Z,65.07
2023-03-26T14:15:34.091Z,62.87
2023-03-26T14:18:08.184Z,64.53
2023-03-26T14:20:59.526Z,66.12
2023-03-26T14:23:39.144Z,62.78
2023-03-26T14:26:15.780Z,62.57
2023-03-26T14:29:10.168Z,63.11
2023-03-26T14:31:40.206Z,62.65
2023-03-26T14:34:25.798Z,60.98
2023-03-26T14:37:10.679Z,62.75
2023-03-26T14:40:14.621Z,61.30
2023-03-26T14:42:44.124Z,61.00
2023-03-26T14:45:36.435Z,62.29
2023-03-26T14:48:39.005Z,61.75
2023-03-26T14:51:16.537Z,61.10
2023-03-26T14:53:45.893Z,61.43
2023-03-26T14:56:38.509Z,61.33
2023-03-26T14:59:41.721Z,62.53
2023-03-26T15:02:51.573Z,61.71
2023-03-26T15:05:41.905Z,61.68
2023-03-26T15:08:36.091Z,59.79
2023-03-26T15:11:18.527Z,58.16
2023-03-26T15:13:55.173Z,58.62
2023-03-26T15:16:42.860Z,58.49
2023-03-26T15:19:44.052Z,60.45
2023-03-26T15:22:32.166Z,61.32
2023-03-26T15:25:34.160Z,59.37
2023-03-26T15:28:39.791Z,59.15
2023-03-26T15:31:18.612Z,57.76
2023-03-26T15:34:01.780Z,57.10
2023-03-26T15:37:05.196Z,57.18
2023-03-26T15:39:58.582Z,55.90
2023-03-26T15:42:32.658Z,55.29
2023-03-26T15:45:16.685Z,55.41
2023-03-26T15:47:52.383Z,56.84
2023-03-26T15:50:30.711Z,57.04
2023-03-26T15:53:07.662Z,57.82
2023-03-26T15:55:42.129Z,57.21
2023-03-26T15:58:16.986Z,56.96
2023-03-26T16:00:56.234Z,56.65
2023-03-26T16:03:31.895Z,58.86
2023-03-26T16:06:21.870Z,62.31
2023-03-26T16:08:54.943Z,62.88
2023-03-26T16:11:44.283Z,64.19
2023-03-26T16:14:20.091Z,65.93
2023-03-26T16:16:57.572Z,66.49
2023-03-26T16:19:41.143Z,67.52
2023-03-26T16:22:14.611Z,66.84
2023-03-26T16:24:46.526Z,64.76
2023-03-26T16:27:33.540Z,65.14
2023-03-26T16:30:19.485Z,65.08
2023-03-26T16:32:49.327Z,64.86
2023-03-26T16:35:58.684Z,62.71
2023-03-26T16:38:27.342Z,63.72
2023-03-26T16:41:00.554Z,63.25
2023-03-26T16:43:57.096Z,63.31
2023-03-26T16:46:35.612Z,63.54
2023-03-26T16:49:11.558Z,63.06
2023-03-26T16:51:54.581Z,62.33
2023-03-26T16:54:26.981Z,61.30
2023-03-26T16:57:01.797Z,61.44
2023-03-26T17:00:06.334Z,62.26
2023-03-26T17:02:47.989Z,60.53
2023-03-26T17:05:21.096Z,59.45
2023-03-26T17:07:53.973Z,60.01
2023-03-26T17:10:30.853Z,61.58
2023-03-26T17:13:04.611Z,59.06
2023-03-26T17:15:37.536Z,59.75
2023-03-26T17:18:26.348Z,62.06
2023-03-26T17:21:01.096Z,61.86
2023-03-26T17:23:39.057Z,63.46
2023-03-26T17:26:12.534Z,63.34
2023-03-26T17:28:55.280Z,64.10
2023-03-26T17:31:28.441Z,65.40
2023-03-26T17:34:33.418Z,64.48
2023-03-26T17:37:02.059Z,64.34
2023-03-26T17:40:12.435Z,63.40
2023-03-26T17:42:40.385Z,64.79
2023-03-26T17:45:09.809Z,63.48
2023-03-26T17:47:39.863Z,60.98
2023-03-26T17:50:16.198Z,60.12
2023-03-26T17:52:56.756Z,60.34
2023-03-26T17:55:31.510Z,62.39
2023-03-26T17:58:00.835Z,62.59
2023-03-26T18:00:31.227Z,61.51
2023-03-26T18:03:02.283Z,61.37
2023-03-26T18:05:32.217Z,62.75
2023-03-26T18:08:16.086Z,62.46
2023-03-26T18:11:08.949Z,64.56
2023-03-26T18:13:47.978Z,64.61
2023-03-26T18:16:16.798Z,65.81
2023-03-26T18:18:50.134Z,62.49
2023-03-26T18:21:24.065Z,63.62
2023-03-26T18:23:52.424Z,63.84
2023-03-26T18:26:23.133Z,65.17
2023-03-26T18:28:52.895Z,63.81
2023-03-26T18:31:24.109Z,65.65
2023-03-26T18:33:55.660Z,62.96
2023-03-26T18:36:25.908Z,65.16
2023-03-26T18:38:57.684Z,66.15
2023-03-26T18:41:28.543Z,67.62
2023-03-26T18:43:57.475Z,66.54
2023-03-26T18:46:25.784Z,66.16
2023-03-26T18:48:55.625Z,68.38
2023-03-26T18:51:27.502Z,67.01
2023-03-26T18:53:57.211Z,66.78
2023-03-26T18:56:33.657Z,66.43
2023-03-26T18:59:03.144Z,66.56
2023-03-26T19:01:32.128Z,68.68
2023-03-26T19:04:02.226Z,68.76
2023-03-26T19:06:35.703Z,67.42
2023-03-26T19:09:13.495Z,68.85
2023-03-26T19:11:50.059Z,67.71
2023-03-26T19:14:20.150Z,68.13
2023-03-26T19:16:50.726Z,68.81
2023-03-26T19:19:23.026Z,68.50
2023-03-26T19:21:52.439Z,69.79
2023-03-26T19:24:21.105Z,70.20
2023-03-26T19:26:49.455Z,69.83
2023-03-26T19:29:20.274Z,69.89
2023-03-26T19:31:52.073Z,68.94
2023-03-26T19:34:26.238Z,69.92
2023-03-26T19:36:59.444Z,72.13
2023-03-26T19:42:27.591Z,69.16
2023-03-26T19:45:16.348Z,68.46
2023-03-26T19:47:52.176Z,71.58
2023-03-26T19:50:25.573Z,70.84
2023-03-26T19:51:18.069Z,70.68
2023-03-26T19:53:16.884Z,71.88
2023-03-26T19:55:54.286Z,72.00
2023-03-26T19:58:22.098Z,71.55
2023-03-26T20:00:49.952Z,70.69
2023-03-26T20:03:20.088Z,74.00
2023-03-26T20:05:47.906Z,74.55
2023-03-26T20:08:17.354Z,72.77
2023-03-26T20:10:45.012Z,72.67
2023-03-26T20:13:17.282Z,73.46
2023-03-26T20:15:49.164Z,73.23
2023-03-26T20:18:33.966Z,75.82
2023-03-26T20:21:01.710Z,75.32
2023-03-26T20:23:30.734Z,77.22
2023-03-26T20:25:58.682Z,75.12
2023-03-26T20:28:26.363Z,75.94
2023-03-26T20:30:54.671Z,78.29
2023-03-26T20:33:26.664Z,77.51
2023-03-26T20:35:55.332Z,80.95
2023-03-26T20:38:36.623Z,79.82
2023-03-26T20:41:11.200Z,81.16
2023-03-26T20:43:38.922Z,81.12
2023-03-26T20:46:07.273Z,80.98
2023-03-26T20:48:35.441Z,78.80
2023-03-26T20:51:03.450Z,78.55
2023-03-26T20:53:31.502Z,79.43
2023-03-26T20:55:59.989Z,79.21
2023-03-26T20:58:30.714Z,78.98
2023-03-26T21:01:01.359Z,77.96
2023-03-26T21:03:29.278Z,79.15
2023-03-26T21:06:00.865Z,77.15
2023-03-26T21:08:35.070Z,77.20
2023-03-26T21:11:03.817Z,76.46
2023-03-26T21:13:38.339Z,74.48
2023-03-26T21:16:08.190Z,74.86
2023-03-26T21:18:36.835Z,73.38
2023-03-26T21:21:21.138Z,73.56
2023-03-26T21:23:57.831Z,73.17
2023-03-26T21:26:29.880Z,75.24
2023-03-26T21:28:59.612Z,72.06
2023-03-26T21:31:30.831Z,75.16
2023-03-26T21:33:59.082Z,72.88
2023-03-26T21:36:28.095Z,76.68
2023-03-26T21:38:56.441Z,75.33
2023-03-26T21:41:35.797Z,73.14
2023-03-26T21:44:05.323Z,76.90
2023-03-26T21:46:33.772Z,75.57
2023-03-26T21:49:02.064Z,76.35
2023-03-26T21:51:30.304Z,78.57
2023-03-26T21:53:58.481Z,78.74
2023-03-26T21:56:38.511Z,78.51
2023-03-26T21:59:11.824Z,80.13
2023-03-26T22:01:44.787Z,78.36
2023-03-26T22:04:15.376Z,76.82
2023-03-26T22:06:46.734Z,80.20
2023-03-26T22:09:18.432Z,77.23
2023-03-26T22:11:48.259Z,75.06
2023-03-26T22:14:17.636Z,76.37
2023-03-26T22:16:45.340Z,76.39
2023-03-26T22:19:13.758Z,75.37
2023-03-26T22:21:41.456Z,75.15
2023-03-26T22:24:09.306Z,75.33
2023-03-26T22:26:37.579Z,75.91
2023-03-26T22:29:05.983Z,76.84
2023-03-26T22:31:36.109Z,76.41
2023-03-26T22:34:03.921Z,78.10
2023-03-26T22:36:32.127Z,74.17
2023-03-26T22:38:59.880Z,76.54
2023-03-26T22:41:29.556Z,75.32
2023-03-26T22:43:59.628Z,74.52
2023-03-26T22:46:31.087Z,76.77
2023-03-26T22:49:00.495Z,76.58
2023-03-26T22:51:29.496Z,80.94
2023-03-26T22:53:57.417Z,80.97
2023-03-26T22:56:25.111Z,83.29
2023-03-26T22:58:52.852Z,85.05
2023-03-26T23:01:22.821Z,82.64
2023-03-26T23:03:51.016Z,81.97
2023-03-26T23:06:21.144Z,79.27
2023-03-26T23:08:48.831Z,80.63
2023-03-26T23:11:18.201Z,80.71
2023-03-26T23:13:47.455Z,80.71
2023-03-26T23:16:16.930Z,81.71
2023-03-26T23:18:44.982Z,80.97
2023-03-26T23:21:15.045Z,81.20
2023-03-26T23:23:44.480Z,81.86
2023-03-26T23:26:13.551Z,81.59
2023-03-26T23:28:41.626Z,81.63
2023-03-26T23:31:12.239Z,83.34
2023-03-26T23:33:45.570Z,83.29
2023-03-26T23:36:17.522Z,84.00
2023-03-26T23:38:47.872Z,85.06
2023-03-26T23:41:17.237Z,87.81
2023-03-26T23:43:53.424Z,91.03
2023-03-26T23:46:23.634Z,92.13
2023-03-26T23:48:52.062Z,92.04
2023-03-26T23:51:20.509Z,89.99
2023-03-26T23:53:50.116Z,91.06
2023-03-26T23:56:17.971Z,93.68
2023-03-26T23:58:45.687Z,92.81
